Time;durP1;ratioP1;P1;durP2;ratioP2;P2;SDS_P1;SDS_P2;PMS_P1;PMS_P2;Temp;Humidity;BMP_temperature;BMP_pressure;BME280_temperature;BME280_humidity;BME280_pressure;Samples;Min_cycle;Max_cycle;Signal;HPM_P1;HPM_P2
2023/05/28 00:00:26;;;;;;;11.00;3.30;;;;;;;;;;5052856;28;20075;-75
2023/05/28 00:02:52;;;;;;;9.35;3.17;;;;;;;;;;5051849;28;20094;-75
2023/05/28 00:05:18;;;;;;;8.65;3.15;;;;;;;;;;5017548;28;20033;-76
2023/05/28 00:07:43;;;;;;;6.95;3.30;;;;;;;;;;5051386;28;20064;-76
2023/05/28 00:10:09;;;;;;;11.10;3.72;;;;;;;;;;5052152;28;20040;-76
2023/05/28 00:12:35;;;;;;;7.05;3.38;;;;;;;;;;5051624;28;20036;-76
2023/05/28 00:15:00;;;;;;;9.65;3.40;;;;;;;;;;5034104;28;20032;-74
2023/05/28 00:17:26;;;;;;;9.20;3.50;;;;;;;;;;5033513;28;20094;-74
2023/05/28 00:19:51;;;;;;;7.43;3.47;;;;;;;;;;5033362;28;20358;-75
2023/05/28 00:22:17;;;;;;;7.78;3.50;;;;;;;;;;5033328;28;20049;-75
2023/05/28 00:24:42;;;;;;;6.35;2.88;;;;;;;;;;5051226;28;20025;-75
2023/05/28 00:27:08;;;;;;;11.23;4.28;;;;;;;;;;5051736;28;20035;-75
2023/05/28 00:29:33;;;;;;;8.38;2.83;;;;;;;;;;5033706;28;20435;-75
2023/05/28 00:32:00;;;;;;;7.78;3.70;;;;;;;;;;5033527;28;20125;-76
2023/05/28 00:34:26;;;;;;;9.18;3.53;;;;;;;;;;5033582;28;20564;-74
2023/05/28 00:36:53;;;;;;;7.03;3.17;;;;;;;;;;5033689;28;20174;-74
2023/05/28 00:39:19;;;;;;;6.22;3.03;;;;;;;;;;5033569;28;20036;-75
2023/05/28 00:41:45;;;;;;;10.43;3.40;;;;;;;;;;5051164;28;20112;-76
2023/05/28 00:44:10;;;;;;;6.13;3.20;;;;;;;;;;5033081;28;20484;-75
2023/05/28 00:46:37;;;;;;;13.15;3.75;;;;;;;;;;5033145;28;20029;-74
2023/05/28 00:49:03;;;;;;;8.73;3.90;;;;;;;;;;5033293;28;20112;-74
2023/05/28 00:51:31;;;;;;;8.60;3.17;;;;;;;;;;5051073;28;20584;-75
2023/05/28 00:53:57;;;;;;;8.85;3.63;;;;;;;;;;5032772;28;20021;-75
2023/05/28 00:56:24;;;;;;;7.07;3.10;;;;;;;;;;5033174;28;20036;-75
2023/05/28 00:58:50;;;;;;;8.82;3.17;;;;;;;;;;5032951;28;20056;-75
2023/05/28 01:01:16;;;;;;;10.93;3.50;;;;;;;;;;5033226;28;20394;-74
2023/05/28 01:03:42;;;;;;;7.93;2.92;;;;;;;;;;5050854;28;20430;-75
2023/05/28 01:06:11;;;;;;;6.10;3.17;;;;;;;;;;5051046;28;20104;-75
2023/05/28 01:08:38;;;;;;;6.72;3.50;;;;;;;;;;5033037;28;20025;-75
2023/05/28 01:11:06;;;;;;;7.85;3.25;;;;;;;;;;5032871;28;20059;-75
2023/05/28 01:13:33;;;;;;;7.50;3.22;;;;;;;;;;5050685;28;20025;-76
2023/05/28 01:15:58;;;;;;;7.55;3.42;;;;;;;;;;5050445;28;20025;-76
2023/05/28 01:18:25;;;;;;;9.05;2.88;;;;;;;;;;5032191;28;20082;-75
2023/05/28 01:20:51;;;;;;;6.55;3.28;;;;;;;;;;5032427;28;20056;-75
2023/05/28 01:23:20;;;;;;;9.60;3.55;;;;;;;;;;5050309;28;20056;-75
2023/05/28 01:25:52;;;;;;;9.15;3.95;;;;;;;;;;5032735;28;20068;-74
2023/05/28 01:28:17;;;;;;;7.90;3.35;;;;;;;;;;5032899;28;20025;-75
2023/05/28 01:30:43;;;;;;;10.73;3.45;;;;;;;;;;5032360;28;20496;-75
2023/05/28 01:33:11;;;;;;;7.20;3.40;;;;;;;;;;5050257;28;20031;-75
2023/05/28 01:35:37;;;;;;;9.52;3.65;;;;;;;;;;5032226;28;20444;-75
2023/05/28 01:38:03;;;;;;;10.55;3.72;;;;;;;;;;5049908;28;20395;-75
2023/05/28 01:40:30;;;;;;;9.82;3.63;;;;;;;;;;5050241;28;20032;-75
2023/05/28 01:42:57;;;;;;;9.65;3.45;;;;;;;;;;5031848;28;20021;-74
2023/05/28 01:45:24;;;;;;;16.13;4.55;;;;;;;;;;5050467;28;20032;-74
2023/05/28 01:47:50;;;;;;;10.68;3.42;;;;;;;;;;5031672;28;20024;-74
2023/05/28 01:50:16;;;;;;;12.82;4.38;;;;;;;;;;5050131;28;20029;-75
2023/05/28 01:52:44;;;;;;;10.65;3.35;;;;;;;;;;5031702;28;20021;-75
2023/05/28 01:55:11;;;;;;;9.75;3.63;;;;;;;;;;5050510;28;20075;-75
2023/05/28 01:57:38;;;;;;;8.77;3.55;;;;;;;;;;5032173;28;20028;-75
2023/05/28 02:00:05;;;;;;;9.02;3.83;;;;;;;;;;5031655;28;20115;-76
2023/05/28 02:02:31;;;;;;;13.45;4.75;;;;;;;;;;5049622;28;20025;-74
2023/05/28 02:04:56;;;;;;;8.80;4.10;;;;;;;;;;5031384;28;20032;-75
2023/05/28 02:07:22;;;;;;;13.95;4.20;;;;;;;;;;5049664;28;20070;-75
2023/05/28 02:09:47;;;;;;;13.90;4.40;;;;;;;;;;5049283;28;20365;-74
2023/05/28 02:12:13;;;;;;;10.20;4.28;;;;;;;;;;5031575;28;20201;-75
2023/05/28 02:14:38;;;;;;;13.80;4.50;;;;;;;;;;5031456;28;20029;-74
2023/05/28 02:17:04;;;;;;;11.13;4.47;;;;;;;;;;5049404;28;20226;-75
2023/05/28 02:19:29;;;;;;;9.45;4.20;;;;;;;;;;5049449;28;20331;-75
2023/05/28 02:21:55;;;;;;;11.40;4.40;;;;;;;;;;5031153;28;20029;-75
2023/05/28 02:24:21;;;;;;;8.98;4.20;;;;;;;;;;5031163;28;20028;-75
2023/05/28 02:26:47;;;;;;;11.93;4.65;;;;;;;;;;5031117;28;20128;-75
2023/05/28 02:29:13;;;;;;;12.85;5.32;;;;;;;;;;5049728;28;20107;-75
2023/05/28 02:31:38;;;;;;;11.02;4.82;;;;;;;;;;5049690;28;20052;-74
2023/05/28 02:34:04;;;;;;;14.18;5.88;;;;;;;;;;5049225;28;20028;-75
2023/05/28 02:36:29;;;;;;;15.25;4.90;;;;;;;;;;5049489;28;20033;-75
2023/05/28 02:38:55;;;;;;;17.25;5.85;;;;;;;;;;5031001;28;20114;-76
2023/05/28 02:41:21;;;;;;;11.90;5.13;;;;;;;;;;5049310;28;20036;-75
2023/05/28 02:43:46;;;;;;;12.38;5.45;;;;;;;;;;5049106;28;20032;-75
2023/05/28 02:46:12;;;;;;;11.73;5.35;;;;;;;;;;5031137;28;20017;-75
2023/05/28 02:48:38;;;;;;;12.38;5.60;;;;;;;;;;5050193;28;20037;-75
2023/05/28 02:51:04;;;;;;;14.55;5.72;;;;;;;;;;5019285;28;20052;-75
2023/05/28 02:53:33;;;;;;;12.77;5.57;;;;;;;;;;5035623;28;20017;-75
2023/05/28 02:55:59;;;;;;;11.00;5.57;;;;;;;;;;5053833;28;20037;-76
2023/05/28 02:58:24;;;;;;;12.45;5.30;;;;;;;;;;5054214;28;20448;-75
2023/05/28 03:00:50;;;;;;;14.05;7.28;;;;;;;;;;5036454;28;20025;-75
2023/05/28 03:03:16;;;;;;;12.43;5.00;;;;;;;;;;5053819;28;20032;-74
2023/05/28 03:05:41;;;;;;;15.02;5.82;;;;;;;;;;5054311;28;20040;-74
2023/05/28 03:08:07;;;;;;;20.58;6.88;;;;;;;;;;5036079;28;20056;-75
2023/05/28 03:10:33;;;;;;;14.20;6.25;;;;;;;;;;5035237;28;20029;-75
2023/05/28 03:12:58;;;;;;;15.50;6.72;;;;;;;;;;5034800;28;20476;-74
2023/05/28 03:15:27;;;;;;;20.05;6.47;;;;;;;;;;5035412;28;20123;-75
2023/05/28 03:17:53;;;;;;;12.13;6.10;;;;;;;;;;5035274;28;20028;-75
2023/05/28 03:20:19;;;;;;;12.27;5.57;;;;;;;;;;5035306;28;20021;-75
2023/05/28 03:22:47;;;;;;;13.05;6.18;;;;;;;;;;5052832;28;20037;-74
2023/05/28 03:25:12;;;;;;;12.95;5.57;;;;;;;;;;5034809;28;20052;-75
2023/05/28 03:27:38;;;;;;;14.10;6.85;;;;;;;;;;5053013;28;20029;-74
2023/05/28 03:30:06;;;;;;;18.15;6.50;;;;;;;;;;5034710;28;20077;-76
2023/05/28 03:32:32;;;;;;;15.90;6.55;;;;;;;;;;5035246;28;20029;-77
2023/05/28 03:34:58;;;;;;;12.05;6.78;;;;;;;;;;5034518;28;20025;-75
2023/05/28 03:37:26;;;;;;;12.07;6.15;;;;;;;;;;5035087;28;20039;-75
2023/05/28 03:39:52;;;;;;;13.68;6.55;;;;;;;;;;5035797;28;20488;-75
2023/05/28 03:42:18;;;;;;;14.32;7.80;;;;;;;;;;5037084;28;20025;-75
2023/05/28 03:44:43;;;;;;;13.65;6.45;;;;;;;;;;5059907;28;20044;-75
2023/05/28 03:47:14;;;;;;;13.27;5.95;;;;;;;;;;5061126;28;20025;-76
2023/05/28 03:49:39;;;;;;;13.35;6.47;;;;;;;;;;5057210;28;20079;-75
2023/05/28 03:52:05;;;;;;;17.73;6.25;;;;;;;;;;5035494;28;20453;-75
2023/05/28 03:54:32;;;;;;;12.00;6.00;;;;;;;;;;5035537;28;20067;-75
2023/05/28 03:56:57;;;;;;;16.33;6.18;;;;;;;;;;5052548;28;20021;-75
2023/05/28 03:59:23;;;;;;;14.52;6.53;;;;;;;;;;5033596;28;20060;-75
2023/05/28 04:01:49;;;;;;;14.70;6.43;;;;;;;;;;5033542;28;20373;-75
2023/05/28 04:04:15;;;;;;;15.73;6.90;;;;;;;;;;5051771;28;20068;-75
2023/05/28 04:06:41;;;;;;;13.77;6.80;;;;;;;;;;5034021;28;20166;-75
2023/05/28 04:09:08;;;;;;;15.88;6.97;;;;;;;;;;5033772;28;20430;-75
2023/05/28 04:11:37;;;;;;;20.60;8.88;;;;;;;;;;5051962;28;20092;-75
2023/05/28 04:14:03;;;;;;;13.60;6.90;;;;;;;;;;5051308;28;20020;-75
2023/05/28 04:16:29;;;;;;;13.32;7.00;;;;;;;;;;5051332;28;20025;-75
2023/05/28 04:18:54;;;;;;;15.73;6.55;;;;;;;;;;5032817;28;20496;-74
2023/05/28 04:21:22;;;;;;;10.00;6.10;;;;;;;;;;5033354;28;20024;-74
2023/05/28 04:23:47;;;;;;;13.13;6.20;;;;;;;;;;5051382;28;20021;-74
2023/05/28 04:26:14;;;;;;;20.50;7.40;;;;;;;;;;5033741;28;20021;-76
2023/05/28 04:28:40;;;;;;;17.50;6.85;;;;;;;;;;5033808;28;20047;-75
2023/05/28 04:31:06;;;;;;;12.63;6.32;;;;;;;;;;5051301;28;20102;-76
2023/05/28 04:33:32;;;;;;;11.00;6.07;;;;;;;;;;5033434;28;20044;-75
2023/05/28 04:35:59;;;;;;;13.50;6.28;;;;;;;;;;5032933;28;20132;-74
2023/05/28 04:38:24;;;;;;;17.27;7.15;;;;;;;;;;5033221;28;20025;-76
2023/05/28 04:40:50;;;;;;;11.20;6.63;;;;;;;;;;5032703;28;20020;-74
2023/05/28 04:43:16;;;;;;;16.95;5.90;;;;;;;;;;5033064;28;20021;-74
2023/05/28 04:45:43;;;;;;;16.10;6.28;;;;;;;;;;5046486;28;20079;-75
2023/05/28 04:48:10;;;;;;;14.60;6.25;;;;;;;;;;5032728;28;20438;-75
2023/05/28 04:50:36;;;;;;;10.48;6.40;;;;;;;;;;5044485;28;20040;-76
2023/05/28 04:53:02;;;;;;;13.75;6.18;;;;;;;;;;5070485;28;20048;-76
2023/05/28 04:55:27;;;;;;;13.07;6.68;;;;;;;;;;5070011;28;20040;-76
2023/05/28 04:57:53;;;;;;;13.05;6.15;;;;;;;;;;5052493;28;20036;-76
2023/05/28 05:00:20;;;;;;;14.80;5.93;;;;;;;;;;5070799;28;20449;-76
2023/05/28 05:02:46;;;;;;;21.98;6.53;;;;;;;;;;5070904;28;20531;-76
2023/05/28 05:05:12;;;;;;;16.63;7.47;;;;;;;;;;5070606;28;20056;-75
2023/05/28 05:07:38;;;;;;;14.15;6.32;;;;;;;;;;5070959;28;20028;-76
2023/05/28 05:10:08;;;;;;;18.45;6.85;;;;;;;;;;5052595;28;20032;-75
2023/05/28 05:12:35;;;;;;;12.90;6.57;;;;;;;;;;5069989;28;20595;-75
2023/05/28 05:15:01;;;;;;;13.57;6.53;;;;;;;;;;5052163;28;20492;-74
2023/05/28 05:17:27;;;;;;;15.77;6.25;;;;;;;;;;5070784;28;20035;-75
2023/05/28 05:19:52;;;;;;;17.38;6.47;;;;;;;;;;5070076;28;20037;-75
2023/05/28 05:22:18;;;;;;;18.27;7.43;;;;;;;;;;5070651;28;20031;-75
2023/05/28 05:24:50;;;;;;;16.23;6.88;;;;;;;;;;5070532;28;20025;-75
2023/05/28 05:27:16;;;;;;;16.00;6.50;;;;;;;;;;5052679;28;20035;-76
2023/05/28 05:29:42;;;;;;;17.60;6.90;;;;;;;;;;5052489;28;20032;-75
2023/05/28 05:32:09;;;;;;;11.35;6.72;;;;;;;;;;5052293;28;20055;-75
2023/05/28 05:34:35;;;;;;;13.85;6.90;;;;;;;;;;5052346;28;20146;-76
2023/05/28 05:37:01;;;;;;;17.83;7.85;;;;;;;;;;5070588;28;20132;-76
2023/05/28 05:39:27;;;;;;;13.13;7.47;;;;;;;;;;5071549;28;20430;-74
2023/05/28 05:41:53;;;;;;;14.25;6.45;;;;;;;;;;5053797;28;20020;-75
2023/05/28 05:44:18;;;;;;;16.25;6.82;;;;;;;;;;5053001;28;20065;-73
2023/05/28 05:46:44;;;;;;;16.30;7.20;;;;;;;;;;5052643;28;20025;-75
2023/05/28 05:49:09;;;;;;;17.42;7.35;;;;;;;;;;5052250;28;20028;-75
2023/05/28 05:51:36;;;;;;;15.15;8.43;;;;;;;;;;5069772;28;20025;-75
2023/05/28 05:54:04;;;;;;;13.85;6.90;;;;;;;;;;5069626;28;20042;-75
2023/05/28 05:56:30;;;;;;;14.50;6.38;;;;;;;;;;5051608;28;20035;-75
2023/05/28 05:58:58;;;;;;;16.33;6.90;;;;;;;;;;5051464;28;20041;-75
2023/05/28 06:01:23;;;;;;;12.30;6.55;;;;;;;;;;5051600;28;20055;-75
2023/05/28 06:03:49;;;;;;;14.25;6.95;;;;;;;;;;5051668;28;20565;-75
2023/05/28 06:06:14;;;;;;;13.45;6.93;;;;;;;;;;5063272;28;20119;-75
2023/05/28 06:08:40;;;;;;;12.25;6.65;;;;;;;;;;5031578;28;20055;-75
2023/05/28 06:11:05;;;;;;;13.40;7.45;;;;;;;;;;5030968;28;20045;-74
2023/05/28 06:13:31;;;;;;;14.18;6.90;;;;;;;;;;5032078;28;20032;-75
2023/05/28 06:15:59;;;;;;;16.50;6.93;;;;;;;;;;5030872;28;20025;-75
2023/05/28 06:18:26;;;;;;;15.52;8.52;;;;;;;;;;5049769;28;20029;-75
2023/05/28 06:20:52;;;;;;;11.13;6.95;;;;;;;;;;5031482;28;20799;-75
2023/05/28 06:23:17;;;;;;;13.63;6.15;;;;;;;;;;5031029;28;20056;-75
2023/05/28 06:25:43;;;;;;;14.63;7.18;;;;;;;;;;5049699;28;20046;-75
2023/05/28 06:28:10;;;;;;;20.90;7.65;;;;;;;;;;5031899;28;20087;-75
2023/05/28 06:30:35;;;;;;;33.35;8.07;;;;;;;;;;5031995;28;20025;-74
2023/05/28 06:33:01;;;;;;;20.30;7.30;;;;;;;;;;5050111;28;20078;-74
2023/05/28 06:35:26;;;;;;;20.55;7.45;;;;;;;;;;5032417;28;20036;-74
2023/05/28 06:37:52;;;;;;;16.70;6.00;;;;;;;;;;5031964;28;20170;-74
2023/05/28 06:40:18;;;;;;;13.70;6.75;;;;;;;;;;5049416;28;20032;-75
2023/05/28 06:42:44;;;;;;;17.20;7.07;;;;;;;;;;5031336;28;20496;-74
2023/05/28 06:45:10;;;;;;;11.65;6.15;;;;;;;;;;5014804;28;20033;-74
2023/05/28 06:47:36;;;;;;;13.95;5.38;;;;;;;;;;5015018;28;20025;-74
2023/05/28 06:50:05;;;;;;;13.23;6.70;;;;;;;;;;5031128;28;20520;-75
2023/05/28 06:52:30;;;;;;;13.85;5.93;;;;;;;;;;5050048;28;20021;-74
2023/05/28 06:54:56;;;;;;;15.25;6.40;;;;;;;;;;5049420;28;20680;-77
2023/05/28 06:57:21;;;;;;;13.45;6.25;;;;;;;;;;5031927;28;20028;-75
2023/05/28 06:59:47;;;;;;;11.13;5.93;;;;;;;;;;5031680;28;20063;-74
2023/05/28 07:02:13;;;;;;;16.92;5.70;;;;;;;;;;5049940;28;20052;-75
2023/05/28 07:04:38;;;;;;;11.13;5.30;;;;;;;;;;5050316;28;20461;-76
2023/05/28 07:07:05;;;;;;;13.20;5.97;;;;;;;;;;5032074;28;20182;-75
2023/05/28 07:09:30;;;;;;;13.10;6.15;;;;;;;;;;5032445;28;20418;-75
2023/05/28 07:11:56;;;;;;;16.63;6.38;;;;;;;;;;5031563;28;20132;-75
2023/05/28 07:14:22;;;;;;;14.77;5.15;;;;;;;;;;5031449;28;20021;-74
2023/05/28 07:16:47;;;;;;;12.95;3.72;;;;;;;;;;5048878;28;20029;-74
2023/05/28 07:19:13;;;;;;;10.43;4.28;;;;;;;;;;5048827;28;20060;-74
2023/05/28 07:21:38;;;;;;;11.85;3.97;;;;;;;;;;5030770;28;20024;-75
2023/05/28 07:24:05;;;;;;;11.85;3.92;;;;;;;;;;5030993;28;20033;-73
2023/05/28 07:26:31;;;;;;;13.75;3.83;;;;;;;;;;5049344;28;20029;-74
2023/05/28 07:29:00;;;;;;;9.25;3.70;;;;;;;;;;5031134;28;20094;-76
2023/05/28 07:31:26;;;;;;;7.90;4.05;;;;;;;;;;5049504;28;20101;-75
2023/05/28 07:33:51;;;;;;;8.00;4.00;;;;;;;;;;5049747;28;20138;-75
2023/05/28 07:36:17;;;;;;;11.75;4.50;;;;;;;;;;5052623;28;20033;-74
2023/05/28 07:38:43;;;;;;;9.57;4.25;;;;;;;;;;5034915;28;20540;-73
2023/05/28 07:41:08;;;;;;;10.07;3.70;;;;;;;;;;5052420;28;20021;-77
2023/05/28 07:43:34;;;;;;;4.95;2.78;;;;;;;;;;5052590;28;20137;-77
2023/05/28 07:45:59;;;;;;;6.20;2.92;;;;;;;;;;5052425;28;20025;-78
2023/05/28 07:48:25;;;;;;;7.78;3.10;;;;;;;;;;5034400;28;20060;-76
2023/05/28 07:50:51;;;;;;;8.60;3.78;;;;;;;;;;5052591;28;20073;-77
2023/05/28 07:53:17;;;;;;;7.82;3.55;;;;;;;;;;5034407;28;20025;-77
2023/05/28 07:55:43;;;;;;;7.22;3.15;;;;;;;;;;5053422;28;20029;-78
2023/05/28 07:58:11;;;;;;;5.80;3.00;;;;;;;;;;5018557;28;20069;-78
2023/05/28 08:00:37;;;;;;;6.22;2.40;;;;;;;;;;5054988;28;20033;-77
2023/05/28 08:03:03;;;;;;;8.85;3.10;;;;;;;;;;5038127;28;20044;-77
2023/05/28 08:05:29;;;;;;;5.03;2.42;;;;;;;;;;5057540;28;20040;-78
2023/05/28 08:07:54;;;;;;;6.22;3.08;;;;;;;;;;5040223;28;20033;-77
2023/05/28 08:10:20;;;;;;;12.85;4.10;;;;;;;;;;5041408;28;20021;-77
2023/05/28 08:12:45;;;;;;;7.90;2.95;;;;;;;;;;5035698;28;20032;-77
2023/05/28 08:15:11;;;;;;;8.60;3.03;;;;;;;;;;5054073;28;20503;-78
2023/05/28 08:17:36;;;;;;;9.15;3.28;;;;;;;;;;5036286;28;20029;-76
2023/05/28 08:20:04;;;;;;;8.25;3.63;;;;;;;;;;5054405;28;20029;-77
2023/05/28 08:22:29;;;;;;;5.90;3.03;;;;;;;;;;5053071;28;20032;-78
2023/05/28 08:24:55;;;;;;;10.38;3.35;;;;;;;;;;5051781;28;20089;-77
2023/05/28 08:27:20;;;;;;;9.95;3.28;;;;;;;;;;5051603;28;20036;-75
2023/05/28 08:29:46;;;;;;;7.97;3.10;;;;;;;;;;5051678;28;20029;-76
2023/05/28 08:32:11;;;;;;;8.35;3.38;;;;;;;;;;5051765;28;20029;-77
2023/05/28 08:34:38;;;;;;;7.45;3.20;;;;;;;;;;5051589;28;20048;-77
2023/05/28 08:37:07;;;;;;;6.50;3.08;;;;;;;;;;5033615;28;20488;-77
2023/05/28 08:39:33;;;;;;;15.32;4.00;;;;;;;;;;5033766;28;20090;-76
2023/05/28 08:41:59;;;;;;;5.22;2.78;;;;;;;;;;5017024;28;20071;-77
2023/05/28 08:44:24;;;;;;;9.27;3.05;;;;;;;;;;5051258;28;20091;-77
2023/05/28 08:46:51;;;;;;;7.40;2.95;;;;;;;;;;5033788;28;20036;-77
2023/05/28 08:49:21;;;;;;;4.45;2.50;;;;;;;;;;5051193;28;20476;-76
2023/05/28 08:51:53;;;;;;;6.20;3.10;;;;;;;;;;5033284;28;20041;-76
2023/05/28 08:54:20;;;;;;;8.07;2.80;;;;;;;;;;5050932;28;20021;-78
2023/05/28 08:56:45;;;;;;;7.30;2.88;;;;;;;;;;5033163;28;20361;-78
2023/05/28 08:59:12;;;;;;;10.27;3.10;;;;;;;;;;5015925;28;20049;-77
2023/05/28 09:01:38;;;;;;;5.55;2.55;;;;;;;;;;5033074;28;20017;-77
2023/05/28 09:04:04;;;;;;;10.30;3.17;;;;;;;;;;5034240;28;20033;-77
2023/05/28 09:06:31;;;;;;;7.50;3.35;;;;;;;;;;5051411;28;20152;-77
2023/05/28 09:08:57;;;;;;;7.82;2.80;;;;;;;;;;5033308;28;20087;-76
2023/05/28 09:11:22;;;;;;;5.93;3.13;;;;;;;;;;5050820;28;20529;-77
2023/05/28 09:13:48;;;;;;;10.60;3.70;;;;;;;;;;5032804;28;20032;-75
2023/05/28 09:16:22;;;;;;;10.27;3.38;;;;;;;;;;5032406;28;20025;-75
2023/05/28 09:19:02;;;;;;;5.85;2.78;;;;;;;;;;5050611;28;20029;-75
2023/05/28 09:21:27;;;;;;;8.48;3.08;;;;;;;;;;5032749;28;20055;-75
2023/05/28 09:23:53;;;;;;;16.10;3.17;;;;;;;;;;5032337;28;20469;-75
2023/05/28 09:26:21;;;;;;;7.82;2.88;;;;;;;;;;5050292;28;20063;-75
2023/05/28 09:28:49;;;;;;;8.30;4.35;;;;;;;;;;5032548;28;20846;-74
2023/05/28 09:31:15;;;;;;;9.95;4.05;;;;;;;;;;5032355;28;20107;-75
2023/05/28 09:33:47;;;;;;;6.20;2.95;;;;;;;;;;5032556;28;20104;-77
2023/05/28 09:36:17;;;;;;;11.50;3.10;;;;;;;;;;5050212;28;20112;-75
2023/05/28 09:38:43;;;;;;;6.20;3.58;;;;;;;;;;5050749;28;20021;-76
2023/05/28 09:41:22;;;;;;;8.52;3.17;;;;;;;;;;5032030;28;20119;-74
2023/05/28 09:44:02;;;;;;;14.55;3.58;;;;;;;;;;5031903;28;20362;-74
2023/05/28 09:46:30;;;;;;;6.03;3.05;;;;;;;;;;5049795;28;20104;-76
2023/05/28 09:48:57;;;;;;;8.77;3.00;;;;;;;;;;5032130;28;20041;-75
2023/05/28 09:51:28;;;;;;;7.90;3.08;;;;;;;;;;5032484;28;20420;-75
2023/05/28 09:54:02;;;;;;;7.95;3.35;;;;;;;;;;5051588;28;20036;-75
2023/05/28 09:56:30;;;;;;;8.65;3.08;;;;;;;;;;5049301;28;20037;-75
2023/05/28 09:59:01;;;;;;;7.15;3.10;;;;;;;;;;5049308;28;20124;-73
2023/05/28 10:01:32;;;;;;;11.20;2.97;;;;;;;;;;5049943;28;20092;-75
2023/05/28 10:04:06;;;;;;;7.00;3.03;;;;;;;;;;5031804;28;20031;-76
2023/05/28 10:06:33;;;;;;;12.20;3.20;;;;;;;;;;5032001;28;20069;-76
2023/05/28 10:09:00;;;;;;;8.25;3.13;;;;;;;;;;5031616;28;20051;-75
2023/05/28 10:11:29;;;;;;;6.05;2.90;;;;;;;;;;5015631;28;20063;-75
2023/05/28 10:13:56;;;;;;;11.13;3.47;;;;;;;;;;5032991;28;20028;-74
2023/05/28 10:16:22;;;;;;;7.47;3.35;;;;;;;;;;5033745;28;20450;-75
2023/05/28 10:18:48;;;;;;;8.27;2.80;;;;;;;;;;5034815;28;20124;-74
2023/05/28 10:21:17;;;;;;;6.15;3.25;;;;;;;;;;5052006;28;20032;-75
2023/05/28 10:23:44;;;;;;;11.52;2.85;;;;;;;;;;5034468;28;20029;-75
2023/05/28 10:26:10;;;;;;;6.13;3.08;;;;;;;;;;5051543;28;20036;-74
2023/05/28 10:28:35;;;;;;;4.55;2.85;;;;;;;;;;5016344;28;20453;-76
2023/05/28 10:31:06;;;;;;;7.90;2.90;;;;;;;;;;5050522;28;20048;-76
2023/05/28 10:33:39;;;;;;;6.35;2.88;;;;;;;;;;5032575;28;20029;-75
2023/05/28 10:36:10;;;;;;;7.43;2.83;;;;;;;;;;5049834;28;20649;-76
2023/05/28 10:38:43;;;;;;;8.40;4.18;;;;;;;;;;5031252;28;20033;-75
2023/05/28 10:41:08;;;;;;;5.50;2.75;;;;;;;;;;5014567;28;20101;-76
2023/05/28 10:43:42;;;;;;;9.27;3.17;;;;;;;;;;5049138;28;20610;-76
2023/05/28 10:46:34;;;;;;;7.95;3.28;;;;;;;;;;5031332;28;20029;-75
2023/05/28 10:49:08;;;;;;;7.68;3.28;;;;;;;;;;5049254;28;20079;-75
2023/05/28 10:51:56;;;;;;;6.55;2.92;;;;;;;;;;5031169;28;20044;-76
2023/05/28 10:54:46;;;;;;;6.25;3.33;;;;;;;;;;5030887;28;20120;-75
2023/05/28 10:57:14;;;;;;;5.50;3.08;;;;;;;;;;5030650;28;20021;-76
2023/05/28 10:59:57;;;;;;;8.38;3.22;;;;;;;;;;5049028;28;20128;-76
2023/05/28 11:02:25;;;;;;;7.10;4.00;;;;;;;;;;5048816;28;20103;-75
2023/05/28 11:05:00;;;;;;;6.22;2.88;;;;;;;;;;5031004;28;20025;-75
2023/05/28 11:07:36;;;;;;;8.73;3.13;;;;;;;;;;5030605;28;20040;-75
2023/05/28 11:10:04;;;;;;;5.63;3.22;;;;;;;;;;5032484;28;20025;-76
2023/05/28 11:12:31;;;;;;;7.20;3.35;;;;;;;;;;5034643;28;20033;-76
2023/05/28 11:14:57;;;;;;;5.63;3.22;;;;;;;;;;5034649;28;20025;-76
2023/05/28 11:17:23;;;;;;;6.20;2.40;;;;;;;;;;5034910;28;20113;-75
2023/05/28 11:19:50;;;;;;;8.82;3.78;;;;;;;;;;5035189;28;20025;-76
2023/05/28 11:22:17;;;;;;;6.78;2.65;;;;;;;;;;5034184;28;20072;-75
2023/05/28 11:24:59;;;;;;;7.03;3.08;;;;;;;;;;5034615;28;20056;-76
2023/05/28 11:27:30;;;;;;;7.60;3.15;;;;;;;;;;5034624;28;20083;-75
2023/05/28 11:29:58;;;;;;;7.05;3.00;;;;;;;;;;5035094;28;20063;-76
2023/05/28 11:32:24;;;;;;;8.25;2.97;;;;;;;;;;5053348;28;20053;-76
2023/05/28 11:34:53;;;;;;;7.50;3.10;;;;;;;;;;5036834;28;20495;-76
2023/05/28 11:37:33;;;;;;;5.82;3.10;;;;;;;;;;5054798;28;20469;-75
2023/05/28 11:40:00;;;;;;;7.95;3.22;;;;;;;;;;5035355;28;20107;-75
2023/05/28 11:42:29;;;;;;;20.55;4.75;;;;;;;;;;5034823;28;20075;-76
2023/05/28 11:44:55;;;;;;;7.95;2.92;;;;;;;;;;5034665;28;20033;-76
2023/05/28 11:47:21;;;;;;;7.50;3.03;;;;;;;;;;5034226;28;20063;-76
2023/05/28 11:49:47;;;;;;;7.57;3.10;;;;;;;;;;5052205;28;20039;-73
2023/05/28 11:52:15;;;;;;;7.10;3.25;;;;;;;;;;5034068;28;20021;-76
2023/05/28 11:54:42;;;;;;;4.68;2.15;;;;;;;;;;5034332;28;20017;-75
2023/05/28 11:57:09;;;;;;;6.20;3.25;;;;;;;;;;5052323;28;20028;-76
2023/05/28 11:59:35;;;;;;;5.85;2.78;;;;;;;;;;5034040;28;20098;-75
2023/05/28 12:02:12;;;;;;;5.43;2.70;;;;;;;;;;5052539;28;20128;-74
2023/05/28 12:04:37;;;;;;;7.32;2.67;;;;;;;;;;5052114;28;20433;-76
2023/05/28 12:07:03;;;;;;;7.55;2.50;;;;;;;;;;5034572;28;20025;-75
2023/05/28 12:09:28;;;;;;;9.35;3.05;;;;;;;;;;5052224;28;20040;-75
2023/05/28 12:12:11;;;;;;;8.40;2.90;;;;;;;;;;5034474;28;20033;-75
2023/05/28 12:14:36;;;;;;;5.53;2.40;;;;;;;;;;5033916;28;20111;-76
2023/05/28 12:17:10;;;;;;;5.22;2.92;;;;;;;;;;5052476;28;20147;-75
2023/05/28 12:19:36;;;;;;;9.65;3.22;;;;;;;;;;5051994;28;20508;-76
2023/05/28 12:22:04;;;;;;;5.55;2.40;;;;;;;;;;5034027;28;20025;-75
2023/05/28 12:24:30;;;;;;;10.57;2.80;;;;;;;;;;5036777;28;20029;-76
2023/05/28 12:26:56;;;;;;;4.72;2.60;;;;;;;;;;5037274;28;20112;-75
2023/05/28 12:29:23;;;;;;;6.15;2.50;;;;;;;;;;5023084;28;20094;-76
2023/05/28 12:31:59;;;;;;;3.90;2.80;;;;;;;;;;5042900;28;20017;-75
2023/05/28 12:34:25;;;;;;;6.13;2.95;;;;;;;;;;5058129;28;20017;-76
2023/05/28 12:36:50;;;;;;;6.15;2.38;;;;;;;;;;5052719;28;20031;-76
2023/05/28 12:39:16;;;;;;;9.85;2.95;;;;;;;;;;5051719;28;20033;-75
2023/05/28 12:41:42;;;;;;;7.22;2.50;;;;;;;;;;5033331;28;20029;-77
2023/05/28 12:44:09;;;;;;;8.70;2.90;;;;;;;;;;5050888;28;20033;-76
2023/05/28 12:46:34;;;;;;;5.88;2.63;;;;;;;;;;5032796;28;20111;-76
2023/05/28 12:49:00;;;;;;;5.55;2.55;;;;;;;;;;5033305;28;20097;-75
2023/05/28 12:51:25;;;;;;;6.93;2.83;;;;;;;;;;5033004;28;20033;-76
2023/05/28 12:53:51;;;;;;;4.72;2.75;;;;;;;;;;5033548;28;20021;-75
2023/05/28 12:56:18;;;;;;;5.13;2.70;;;;;;;;;;5032894;28;20029;-75
2023/05/28 12:58:43;;;;;;;5.15;2.78;;;;;;;;;;5032557;28;20052;-76
2023/05/28 13:01:10;;;;;;;5.75;2.63;;;;;;;;;;5032918;28;20388;-76
2023/05/28 13:03:36;;;;;;;4.93;2.63;;;;;;;;;;5032969;28;20021;-75
2023/05/28 13:06:01;;;;;;;5.72;2.72;;;;;;;;;;5050945;28;20658;-75
2023/05/28 13:08:27;;;;;;;5.40;2.70;;;;;;;;;;5032666;28;20031;-75
2023/05/28 13:10:52;;;;;;;6.50;2.80;;;;;;;;;;5051151;28;20051;-76
2023/05/28 13:13:18;;;;;;;7.65;2.83;;;;;;;;;;5033505;28;20040;-75
2023/05/28 13:15:45;;;;;;;4.47;2.35;;;;;;;;;;5051510;28;20526;-76
2023/05/28 13:18:10;;;;;;;6.70;2.53;;;;;;;;;;5050887;28;20032;-76
2023/05/28 13:20:36;;;;;;;6.57;2.40;;;;;;;;;;5050634;28;20025;-76
2023/05/28 13:23:02;;;;;;;7.90;2.85;;;;;;;;;;5033672;28;20093;-76
2023/05/28 13:25:30;;;;;;;6.93;2.70;;;;;;;;;;5051228;28;20050;-76
2023/05/28 13:27:55;;;;;;;5.35;2.78;;;;;;;;;;5033748;28;20453;-75
2023/05/28 13:30:21;;;;;;;8.90;2.47;;;;;;;;;;5033179;28;20032;-76
2023/05/28 13:32:46;;;;;;;3.92;2.20;;;;;;;;;;5032796;28;20033;-75
2023/05/28 13:35:12;;;;;;;8.00;2.80;;;;;;;;;;5033169;28;20024;-77
2023/05/28 13:37:38;;;;;;;5.95;2.45;;;;;;;;;;5032422;28;20507;-77
2023/05/28 13:40:10;;;;;;;7.25;3.00;;;;;;;;;;5050529;28;20087;-77
2023/05/28 13:42:36;;;;;;;6.55;2.70;;;;;;;;;;5050090;28;20095;-76
2023/05/28 13:45:01;;;;;;;4.03;2.45;;;;;;;;;;5032325;28;20745;-75
2023/05/28 13:47:27;;;;;;;8.25;2.80;;;;;;;;;;5031836;28;20513;-75
2023/05/28 13:49:52;;;;;;;5.75;2.40;;;;;;;;;;5032547;28;20028;-75
2023/05/28 13:52:18;;;;;;;7.30;2.28;;;;;;;;;;5032310;28;20138;-76
2023/05/28 13:54:43;;;;;;;5.95;2.60;;;;;;;;;;5032145;28;20402;-75
2023/05/28 13:57:10;;;;;;;5.53;2.20;;;;;;;;;;5031830;28;20044;-76
2023/05/28 13:59:35;;;;;;;7.28;2.85;;;;;;;;;;5049503;28;20041;-76
2023/05/28 14:02:01;;;;;;;8.23;2.30;;;;;;;;;;5050554;28;20035;-76
2023/05/28 14:04:27;;;;;;;8.43;2.70;;;;;;;;;;5050379;28;20108;-75
2023/05/28 14:06:52;;;;;;;7.68;2.63;;;;;;;;;;5032430;28;20111;-75
2023/05/28 14:09:18;;;;;;;4.75;2.65;;;;;;;;;;5049608;28;20079;-76
2023/05/28 14:11:43;;;;;;;4.95;2.70;;;;;;;;;;5031427;28;20039;-76
2023/05/28 14:14:09;;;;;;;5.97;2.30;;;;;;;;;;5031827;28;20020;-76
2023/05/28 14:16:34;;;;;;;9.20;3.13;;;;;;;;;;5049571;28;20593;-76
2023/05/28 14:19:00;;;;;;;4.88;2.35;;;;;;;;;;5031588;28;20025;-76
2023/05/28 14:21:27;;;;;;;4.78;2.38;;;;;;;;;;5031005;28;20438;-76
2023/05/28 14:23:52;;;;;;;10.10;3.45;;;;;;;;;;5031250;28;20033;-75
2023/05/28 14:26:18;;;;;;;3.25;2.38;;;;;;;;;;5049156;28;20070;-75
2023/05/28 14:28:43;;;;;;;4.78;2.40;;;;;;;;;;5031156;28;20438;-76
2023/05/28 14:31:09;;;;;;;4.68;2.40;;;;;;;;;;5049604;28;20025;-75
2023/05/28 14:33:34;;;;;;;5.57;2.22;;;;;;;;;;5031650;28;20449;-75
2023/05/28 14:36:00;;;;;;;4.18;2.22;;;;;;;;;;5049597;28;20465;-76